Port Bolivar, Texas
Current Conditions -  °F | °C
As of 9:52 PM on Tuesday 21 Oct 2014 (Local Time) from KGLS Reporting Station
Clear Clear  
Wind Chill: 73°   Ceiling: Unl
Heat Index: 73°   Visibility: 10mi
Dew Point: 64°   Wind: 9mph
Humidity: 73%   Direction: 40°NE
Pressure: 30.04"   Gusts: NA
Location:  29.38°N, 94.77°W
Report Text: KGLS 220252Z AUTO 04008KT 10SM CLR 23/18 A3004 RMK AO2 SLP171 T02280178 51017
Loading
Personal Weather Stations






























Interactive Weather Map
Tropical Storm Tracking
New forecast layout! Learn more

10-Day Weather Forecast

Advertisements
Track Severe Weather on mobile